Time;durP1;ratioP1;P1;durP2;ratioP2;P2;SDS_P1;SDS_P2;PMS_P1;PMS_P2;Temp;Humidity;BMP_temperature;BMP_pressure;BME280_temperature;BME280_humidity;BME280_pressure;Samples;Min_cycle;Max_cycle;Signal;HPM_P1;HPM_P2
2023/05/31 00:04:25;;;;;;;7.40;2.20;;;;;;;12.98;67.67;101376.34;217496;1291;137794;-88
2023/05/31 00:09:25;;;;;;;9.90;2.30;;;;;;;12.90;67.76;101370.96;217078;1291;140203;-88
2023/05/31 00:14:26;;;;;;;9.10;1.80;;;;;;;12.83;67.90;101375.35;217577;1292;138333;-86
2023/05/31 00:19:26;;;;;;;7.40;2.50;;;;;;;12.76;67.69;101375.55;216946;1291;139019;-87
2023/05/31 00:24:27;;;;;;;6.70;2.30;;;;;;;12.69;67.85;101381.25;217516;1291;138639;-87
2023/05/31 00:29:28;;;;;;;7.60;2.20;;;;;;;12.62;67.71;101382.63;217036;1291;139316;-88
2023/05/31 00:34:29;;;;;;;6.00;1.70;;;;;;;12.57;67.63;101388.22;217503;1291;137957;-87
2023/05/31 00:39:29;;;;;;;5.80;1.90;;;;;;;12.53;67.33;101389.11;216936;1290;139668;-88
2023/05/31 00:44:30;;;;;;;7.20;2.00;;;;;;;12.47;67.64;101392.67;217610;1291;137778;-88
2023/05/31 00:49:30;;;;;;;4.80;2.00;;;;;;;12.40;67.98;101388.38;217226;1292;141285;-88
2023/05/31 00:54:31;;;;;;;6.60;2.10;;;;;;;12.32;68.08;101389.49;217520;1292;137687;-88
2023/05/31 00:59:31;;;;;;;7.00;2.70;;;;;;;12.23;68.48;101386.63;217090;1292;139686;-86
2023/05/31 01:04:32;;;;;;;5.20;2.10;;;;;;;12.18;68.35;101390.94;217577;1291;137972;-89
2023/05/31 01:09:34;;;;;;;7.30;2.80;;;;;;;12.12;68.92;101395.23;217128;1291;139571;-87
2023/05/31 01:15:01;;;;;;;9.80;2.20;;;;;;;12.06;69.33;101392.42;217727;1291;137919;-87
2023/05/31 01:20:08;;;;;;;8.20;2.40;;;;;;;11.98;69.37;101391.17;217172;1293;139721;-84
2023/05/31 01:25:40;;;;;;;6.80;2.20;;;;;;;11.91;69.42;101396.78;217611;1292;137808;-87
2023/05/31 01:30:41;;;;;;;6.50;2.10;;;;;;;11.86;69.68;101398.17;217003;1292;139885;-88
2023/05/31 01:35:41;;;;;;;7.80;2.30;;;;;;;11.81;69.65;101402.33;217472;1292;137835;-88
2023/05/31 01:40:42;;;;;;;6.40;2.10;;;;;;;11.75;70.57;101402.96;216800;1292;140035;-88
2023/05/31 01:45:43;;;;;;;8.70;2.50;;;;;;;11.65;71.00;101405.82;217458;1292;139153;-88
2023/05/31 01:50:45;;;;;;;8.30;2.60;;;;;;;11.55;71.26;101402.25;216951;1294;140953;-88
2023/05/31 01:55:46;;;;;;;11.00;3.40;;;;;;;11.44;71.66;101404.19;217600;1295;95076;-88
2023/05/31 02:00:47;;;;;;;8.50;2.70;;;;;;;11.30;72.57;101411.51;216971;1291;141790;-88
2023/05/31 02:05:57;;;;;;;8.20;2.70;;;;;;;11.14;72.86;101407.27;217633;1292;138444;-88
2023/05/31 02:10:58;;;;;;;9.80;2.90;;;;;;;11.01;73.70;101401.35;216757;1292;140718;-88
2023/05/31 02:15:59;;;;;;;7.00;2.20;;;;;;;10.88;73.98;101407.71;217444;1293;138721;-89
2023/05/31 02:20:59;;;;;;;6.40;2.70;;;;;;;10.78;74.51;101401.80;216925;1290;143458;-89
2023/05/31 02:26:00;;;;;;;5.60;2.30;;;;;;;10.67;74.91;101400.17;217775;1290;94816;-89
2023/05/31 02:31:01;;;;;;;6.30;2.50;;;;;;;10.58;74.82;101404.81;216985;1292;140057;-89
2023/05/31 02:36:01;;;;;;;9.00;3.10;;;;;;;10.52;75.44;101404.16;217479;1292;139029;-89
2023/05/31 02:41:02;;;;;;;7.90;2.90;;;;;;;10.44;75.78;101406.94;217063;1292;139969;-90
2023/05/31 02:46:02;;;;;;;10.20;3.10;;;;;;;10.36;75.79;101407.67;217567;1291;138653;-88
2023/05/31 02:51:03;;;;;;;6.80;2.70;;;;;;;10.30;76.56;101408.91;217116;1292;140481;-89
2023/05/31 02:56:03;;;;;;;7.30;2.80;;;;;;;10.23;76.83;101408.80;217797;1292;94917;-89
2023/05/31 03:01:04;;;;;;;9.80;2.60;;;;;;;10.17;76.89;101404.30;217117;1292;140700;-89
2023/05/31 03:06:04;;;;;;;8.50;2.60;;;;;;;10.11;77.28;101405.48;217652;1295;138232;-88
2023/05/31 03:11:05;;;;;;;9.00;2.90;;;;;;;10.06;77.51;101408.92;217057;1292;141188;-88
2023/05/31 03:16:05;;;;;;;10.00;2.90;;;;;;;10.01;78.36;101411.63;217641;1292;139617;-88
2023/05/31 03:21:06;;;;;;;6.80;2.80;;;;;;;9.99;79.32;101407.70;217030;1292;140908;-88
2023/05/31 03:26:06;;;;;;;11.60;3.60;;;;;;;10.01;79.91;101409.10;217517;1295;94781;-87
2023/05/31 03:31:07;;;;;;;9.30;2.80;;;;;;;10.02;80.77;101405.42;216953;1293;141135;-89
2023/05/31 03:36:07;;;;;;;12.20;3.10;;;;;;;10.04;80.75;101412.23;217592;1292;139469;-88
2023/05/31 03:41:07;;;;;;;9.00;2.80;;;;;;;10.06;80.76;101414.75;217206;1291;141130;-89
2023/05/31 03:46:08;;;;;;;9.20;3.40;;;;;;;10.08;81.43;101415.14;217626;1291;138263;-89
2023/05/31 03:51:09;;;;;;;9.40;3.20;;;;;;;10.11;81.01;101415.21;217165;1291;141880;-89
2023/05/31 03:56:09;;;;;;;10.70;3.10;;;;;;;10.13;80.85;101416.15;217855;1291;95766;-88
2023/05/31 04:01:11;;;;;;;7.30;2.60;;;;;;;10.16;80.80;101416.63;217153;1290;141584;-89
2023/05/31 04:06:12;;;;;;;9.90;3.10;;;;;;;10.18;81.03;101421.48;217672;1291;138729;-88
2023/05/31 04:11:13;;;;;;;8.70;3.30;;;;;;;10.22;81.26;101421.42;217031;1291;140417;-89
2023/05/31 04:16:13;;;;;;;8.00;2.90;;;;;;;10.25;81.85;101421.30;217484;1290;138366;-89
2023/05/31 04:21:13;;;;;;;9.10;3.00;;;;;;;10.30;82.23;101419.94;216998;1292;141417;-88
2023/05/31 04:26:16;;;;;;;12.00;3.50;;;;;;;10.35;82.62;101418.57;217787;1291;95257;-87
2023/05/31 04:31:17;;;;;;;10.80;3.20;;;;;;;10.46;82.89;101422.88;217013;1290;140949;-89
2023/05/31 04:36:18;;;;;;;9.70;3.10;;;;;;;10.54;83.52;101422.17;217525;1290;139316;-88
2023/05/31 04:41:20;;;;;;;13.70;3.40;;;;;;;10.63;82.99;101425.64;217020;1292;140965;-88
2023/05/31 04:46:22;;;;;;;10.80;3.20;;;;;;;10.70;83.44;101430.39;217727;1291;139232;-88
2023/05/31 04:51:23;;;;;;;10.80;3.40;;;;;;;10.80;83.25;101433.08;217209;1291;143873;-88
2023/05/31 04:56:24;;;;;;;9.30;2.70;;;;;;;10.89;82.88;101434.41;217714;1291;95230;-87
2023/05/31 05:01:26;;;;;;;12.70;3.50;;;;;;;11.03;83.46;101434.14;216890;1292;140902;-87
2023/05/31 05:06:27;;;;;;;12.70;3.50;;;;;;;11.20;83.03;101434.73;217587;1292;138621;-88
2023/05/31 05:11:28;;;;;;;7.40;2.70;;;;;;;11.39;82.65;101435.91;216990;1290;141405;-89
2023/05/31 05:16:29;;;;;;;10.00;3.00;;;;;;;11.57;82.02;101433.58;217478;1292;138556;-87
2023/05/31 05:21:30;;;;;;;10.70;3.40;;;;;;;11.84;81.58;101435.00;216994;1290;141763;-88
2023/05/31 05:26:30;;;;;;;9.20;2.90;;;;;;;12.33;81.16;101432.32;217481;1291;138977;-87
2023/05/31 05:31:31;;;;;;;9.90;2.90;;;;;;;12.93;80.04;101422.73;216798;1296;141072;-87
2023/05/31 05:36:36;;;;;;;11.70;2.90;;;;;;;13.66;78.65;101432.69;217502;1291;138945;-86
2023/05/31 05:41:37;;;;;;;9.80;3.40;;;;;;;14.59;76.92;101432.47;216846;1292;141646;-87
2023/05/31 05:46:38;;;;;;;9.80;3.00;;;;;;;15.50;73.07;101429.92;217334;1293;138486;-88
2023/05/31 05:51:38;;;;;;;10.20;2.70;;;;;;;16.33;71.46;101428.00;216995;1291;140440;-88
2023/05/31 05:56:39;;;;;;;17.80;3.30;;;;;;;17.17;67.54;101424.29;217654;1291;139135;-87
2023/05/31 06:01:40;;;;;;;11.90;3.10;;;;;;;17.74;64.80;101419.33;215047;1293;140688;-88
2023/05/31 06:06:41;;;;;;;7.70;2.40;;;;;;;18.61;64.18;101414.92;214892;1292;137922;-88
2023/05/31 06:11:41;;;;;;;11.30;2.70;;;;;;;19.62;61.38;101412.45;214615;1290;140389;-89
2023/05/31 06:16:42;;;;;;;8.70;2.80;;;;;;;20.46;60.21;101414.27;214978;1292;138728;-89
2023/05/31 06:21:43;;;;;;;10.20;2.90;;;;;;;21.14;57.16;101417.52;214250;1293;141134;-90
2023/05/31 06:26:43;;;;;;;12.90;3.60;;;;;;;21.73;55.42;101415.51;214897;1292;138126;-89
2023/05/31 06:31:44;;;;;;;14.10;3.00;;;;;;;22.41;53.57;101411.58;214512;1293;139956;-88
2023/05/31 06:36:44;;;;;;;7.90;2.50;;;;;;;23.03;51.26;101406.48;214952;1292;138476;-88
2023/05/31 06:41:45;;;;;;;9.90;2.70;;;;;;;23.60;49.53;101403.40;214007;1292;140196;-88
2023/05/31 06:46:45;;;;;;;7.00;2.10;;;;;;;24.00;46.91;101396.21;214758;1291;138434;-87
2023/05/31 06:51:45;;;;;;;6.70;1.90;;;;;;;24.07;45.86;101393.11;214092;1292;140065;-88
2023/05/31 06:56:46;;;;;;;11.60;2.60;;;;;;;24.31;44.13;101389.27;214999;1291;138579;-89
2023/05/31 07:01:46;;;;;;;7.30;2.50;;;;;;;24.54;42.43;101383.56;214550;1291;141250;-86
2023/05/31 07:06:47;;;;;;;9.20;2.10;;;;;;;24.78;42.40;101387.75;215082;1291;138709;-87
2023/05/31 07:11:47;;;;;;;5.80;2.10;;;;;;;24.89;41.39;101386.41;214808;1292;139800;-87
2023/05/31 07:16:50;;;;;;;6.90;1.90;;;;;;;25.15;39.94;101380.57;214868;1291;137774;-87
2023/05/31 07:21:51;;;;;;;7.50;2.30;;;;;;;25.28;39.24;101377.63;214521;1291;139608;-87
2023/05/31 07:26:51;;;;;;;11.10;1.90;;;;;;;25.31;38.92;101376.77;214828;1291;138273;-89
2023/05/31 07:31:52;;;;;;;4.80;1.50;;;;;;;25.70;39.29;101371.06;214773;1292;140693;-88
2023/05/31 07:36:52;;;;;;;10.10;2.50;;;;;;;25.98;38.12;101361.36;215049;1291;137654;-89
2023/05/31 07:41:53;;;;;;;7.00;1.90;;;;;;;26.29;37.08;101351.28;214686;1292;139728;-89
2023/05/31 07:46:53;;;;;;;6.70;1.80;;;;;;;26.30;37.13;101352.31;215102;1291;138169;-88
2023/05/31 07:51:54;;;;;;;7.50;2.00;;;;;;;26.44;37.10;101343.65;214687;1291;140641;-88
2023/05/31 07:56:55;;;;;;;6.40;2.10;;;;;;;26.85;36.76;101339.30;215653;1291;138716;-88
2023/05/31 08:01:55;;;;;;;12.50;2.90;;;;;;;27.10;35.49;101336.88;214352;1293;141286;-87
2023/05/31 08:06:56;;;;;;;4.20;1.60;;;;;;;27.59;36.35;101336.89;214728;1291;139076;-86
2023/05/31 08:11:56;;;;;;;7.30;2.10;;;;;;;28.47;35.23;101337.34;214324;1292;139964;-87
2023/05/31 08:16:57;;;;;;;12.50;2.90;;;;;;;29.12;34.61;101341.11;214880;1291;138981;-84
2023/05/31 08:21:58;;;;;;;7.50;1.80;;;;;;;29.82;33.70;101337.47;214399;1291;141563;-86
2023/05/31 08:26:58;;;;;;;6.20;1.70;;;;;;;30.47;32.64;101334.31;214965;1291;138828;-85
2023/05/31 08:31:58;;;;;;;8.10;1.60;;;;;;;30.89;31.39;101334.27;214576;1293;140028;-87
2023/05/31 08:36:59;;;;;;;10.80;2.10;;;;;;;30.81;30.54;101326.92;214887;1295;139055;-86
2023/05/31 08:42:03;;;;;;;6.50;2.40;;;;;;;31.27;31.14;101324.05;214563;1291;140423;-86
2023/05/31 08:47:12;;;;;;;9.50;2.30;;;;;;;31.94;30.26;101316.33;214634;1291;138288;-87
2023/05/31 08:52:12;;;;;;;12.50;2.30;;;;;;;32.33;29.26;101314.23;214070;1290;140448;-86
2023/05/31 08:57:14;;;;;;;5.70;1.80;;;;;;;32.84;29.23;101308.80;214383;1292;138901;-86
2023/05/31 09:02:16;;;;;;;6.90;1.90;;;;;;;33.24;28.72;101304.41;214345;1291;140883;-85
2023/05/31 09:07:17;;;;;;;6.80;1.50;;;;;;;33.93;28.88;101307.21;214925;1291;137947;-86
2023/05/31 09:12:21;;;;;;;6.80;1.90;;;;;;;34.73;27.65;101307.14;214440;1291;141742;-87
2023/05/31 09:17:21;;;;;;;8.30;1.80;;;;;;;34.94;26.09;101305.85;214887;1291;138268;-86
2023/05/31 09:22:22;;;;;;;5.60;1.70;;;;;;;35.02;26.16;101300.47;214415;1291;140219;-86
2023/05/31 09:27:23;;;;;;;7.50;2.00;;;;;;;35.37;25.95;101293.84;215285;1291;137896;-86
2023/05/31 09:32:23;;;;;;;4.90;1.70;;;;;;;35.57;24.83;101291.02;214392;1295;141166;-84
2023/05/31 09:37:24;;;;;;;5.80;2.20;;;;;;;35.41;25.36;101293.13;214990;1293;138734;-85
2023/05/31 09:42:26;;;;;;;6.50;1.90;;;;;;;35.89;25.55;101288.26;214433;1291;139316;-84
2023/05/31 09:47:27;;;;;;;6.30;2.10;;;;;;;36.35;24.73;101287.48;215247;1291;138350;-85
2023/05/31 09:52:30;;;;;;;5.40;2.00;;;;;;;36.40;23.59;101281.88;214643;1290;139874;-86
2023/05/31 09:57:40;;;;;;;8.00;1.90;;;;;;;36.61;23.65;101283.45;215010;1292;138356;-86
2023/05/31 10:02:45;;;;;;;6.40;1.80;;;;;;;36.76;23.87;101276.15;214452;1291;141765;-86
2023/05/31 10:07:52;;;;;;;5.90;1.90;;;;;;;36.88;22.72;101268.39;215315;1291;96742;-86
2023/05/31 10:13:01;;;;;;;4.20;1.80;;;;;;;36.83;22.42;101266.01;214468;1290;140230;-85
2023/05/31 10:18:15;;;;;;;4.50;1.70;;;;;;;37.14;22.93;101264.42;215020;1291;137791;-86
2023/05/31 10:23:25;;;;;;;4.60;2.00;;;;;;;36.97;21.55;101255.92;214265;1292;140594;-87
2023/05/31 10:28:35;;;;;;;5.50;1.80;;;;;;;36.35;22.16;101256.67;215008;1293;137827;-86
2023/05/31 10:33:37;;;;;;;8.60;2.30;;;;;;;36.55;23.46;101250.77;214122;1294;141240;-87
2023/05/31 10:38:49;;;;;;;6.80;1.90;;;;;;;37.39;23.15;101241.59;214751;1291;301924;-83
2023/05/31 10:43:59;;;;;;;4.00;1.80;;;;;;;37.83;22.35;101241.56;214785;1292;138243;-86
2023/05/31 10:49:02;;;;;;;4.60;1.90;;;;;;;37.61;20.59;101241.27;214526;1293;140946;-87
2023/05/31 10:54:03;;;;;;;10.50;1.70;;;;;;;36.83;21.75;101237.20;214929;1291;138036;-86
2023/05/31 10:59:03;;;;;;;5.10;1.60;;;;;;;36.57;21.79;101225.64;214450;1290;140481;-84
2023/05/31 11:04:18;;;;;;;3.30;1.50;;;;;;;36.40;21.10;101227.55;214806;1292;137892;-85
2023/05/31 11:09:19;;;;;;;5.40;1.80;;;;;;;36.48;21.81;101214.48;214262;1294;140554;-85
2023/05/31 11:14:30;;;;;;;4.40;1.90;;;;;;;36.87;20.02;101209.50;214996;1291;95742;-85
2023/05/31 11:19:35;;;;;;;4.80;1.50;;;;;;;36.77;20.67;101205.81;214213;1291;139841;-85
2023/05/31 11:24:50;;;;;;;4.90;1.50;;;;;;;36.78;20.99;101200.06;214892;1291;137682;-86
2023/05/31 11:29:51;;;;;;;5.90;1.70;;;;;;;36.91;20.52;101199.48;214499;1290;141058;-86
2023/05/31 11:34:58;;;;;;;5.80;1.90;;;;;;;36.89;21.07;101189.55;214904;1294;138611;-86
2023/05/31 11:40:10;;;;;;;3.70;1.50;;;;;;;36.75;21.17;101185.30;214167;1293;140676;-85
2023/05/31 11:45:21;;;;;;;5.80;1.80;;;;;;;36.50;20.36;101180.61;215294;1293;139523;-86
2023/05/31 11:50:23;;;;;;;5.10;2.00;;;;;;;36.53;20.95;101175.52;214587;1293;140061;-86
2023/05/31 11:55:32;;;;;;;4.10;1.60;;;;;;;36.70;21.89;101169.64;215066;1292;139410;-85
2023/05/31 12:00:34;;;;;;;8.00;1.80;;;;;;;36.95;21.47;101160.65;214653;1295;140257;-86
2023/05/31 12:05:34;;;;;;;6.00;2.00;;;;;;;37.00;20.77;101156.98;215163;1291;138155;-86
2023/05/31 12:10:35;;;;;;;5.50;1.60;;;;;;;36.95;21.00;101155.02;214518;1292;139486;-86
2023/05/31 12:15:35;;;;;;;5.20;1.90;;;;;;;36.72;19.66;101147.03;214792;1293;137983;-86
2023/05/31 12:20:36;;;;;;;5.80;1.60;;;;;;;36.07;19.67;101138.46;214586;1293;140401;-85
2023/05/31 12:25:42;;;;;;;6.20;1.90;;;;;;;35.76;19.82;101134.98;215037;1290;96668;-85
2023/05/31 12:30:44;;;;;;;8.00;1.70;;;;;;;35.83;19.93;101138.25;214525;1293;140727;-88
2023/05/31 12:35:46;;;;;;;6.50;2.30;;;;;;;35.46;18.92;101126.05;215030;1291;138416;-85
2023/05/31 12:40:47;;;;;;;4.30;1.60;;;;;;;35.39;19.46;101118.49;214302;1291;140575;-86
2023/05/31 12:45:52;;;;;;;5.90;2.10;;;;;;;35.19;18.62;101112.64;214797;1291;137927;-86
2023/05/31 12:50:57;;;;;;;4.30;1.50;;;;;;;34.76;19.90;101103.53;214463;1291;140103;-86
2023/05/31 12:55:57;;;;;;;3.50;1.70;;;;;;;34.84;21.99;101101.05;215112;1294;97322;-86
2023/05/31 13:00:57;;;;;;;3.30;1.60;;;;;;;34.62;19.43;101093.87;214164;1293;140492;-86
2023/05/31 13:05:58;;;;;;;5.20;2.10;;;;;;;34.16;19.01;101089.55;214852;1295;137938;-88
2023/05/31 13:10:58;;;;;;;5.60;1.70;;;;;;;33.19;18.63;101090.27;214546;1291;140228;-87
2023/05/31 13:15:59;;;;;;;4.10;1.80;;;;;;;32.83;21.59;101085.23;215093;1291;137875;-85
2023/05/31 13:20:59;;;;;;;4.30;1.30;;;;;;;32.42;20.90;101077.40;214464;1291;140748;-87
2023/05/31 13:26:00;;;;;;;4.70;1.50;;;;;;;32.13;21.40;101068.34;215255;1291;96540;-88
2023/05/31 13:31:01;;;;;;;6.00;1.60;;;;;;;32.03;21.96;101062.38;214552;1291;139492;-86
2023/05/31 13:36:01;;;;;;;7.00;1.70;;;;;;;32.20;22.95;101060.52;215052;1291;138640;-87
2023/05/31 13:41:04;;;;;;;6.50;2.00;;;;;;;32.22;21.71;101050.11;214851;1292;140364;-88
2023/05/31 13:46:09;;;;;;;4.90;1.80;;;;;;;32.05;22.59;101043.86;214865;1291;138358;-87
2023/05/31 13:51:11;;;;;;;3.10;1.50;;;;;;;31.98;24.00;101037.03;214532;1291;139710;-87
2023/05/31 13:56:12;;;;;;;5.50;1.70;;;;;;;32.10;23.84;101025.50;213755;1293;96702;-88
2023/05/31 14:01:12;;;;;;;3.90;1.60;;;;;;;31.92;24.56;101017.23;212916;1290;141984;-88
2023/05/31 14:06:13;;;;;;;6.10;1.80;;;;;;;31.99;24.91;101008.81;213808;1293;137744;-87
2023/05/31 14:11:14;;;;;;;4.70;2.50;;;;;;;31.51;24.34;101001.33;213206;1292;140081;-88
2023/05/31 14:16:14;;;;;;;6.60;1.90;;;;;;;31.12;25.16;100994.44;213832;1293;138047;-88
2023/05/31 14:21:15;;;;;;;2.10;1.30;;;;;;;30.88;26.19;100988.30;213428;1296;139748;-89
2023/05/31 14:26:15;;;;;;;6.30;2.30;;;;;;;30.89;25.83;100980.18;213892;1290;96685;-84
2023/05/31 14:31:16;;;;;;;5.10;2.20;;;;;;;30.68;25.07;100975.07;213347;1293;142065;-88
2023/05/31 14:36:16;;;;;;;4.60;1.60;;;;;;;30.59;24.99;100964.80;213298;1294;137787;-84
2023/05/31 14:41:17;;;;;;;8.60;2.00;;;;;;;30.22;22.89;100958.27;213239;1291;140695;-84
2023/05/31 14:46:17;;;;;;;5.30;2.00;;;;;;;29.54;22.91;100952.48;213656;1292;137891;-83
2023/05/31 14:51:17;;;;;;;5.20;1.60;;;;;;;29.25;24.19;100951.52;213158;1291;141091;-82
2023/05/31 14:56:18;;;;;;;6.10;1.70;;;;;;;29.13;22.78;100949.48;213540;1294;96705;-84
2023/05/31 15:01:19;;;;;;;5.80;1.90;;;;;;;28.97;22.92;100942.62;213059;1294;139256;-85
2023/05/31 15:06:21;;;;;;;8.10;1.90;;;;;;;28.72;22.44;100939.86;213657;1293;138204;-84
2023/05/31 15:11:22;;;;;;;3.90;1.40;;;;;;;28.38;23.41;100932.33;213123;1295;139739;-85
2023/05/31 15:16:25;;;;;;;4.40;1.70;;;;;;;28.25;24.43;100925.33;213563;1291;137917;-84
2023/05/31 15:21:26;;;;;;;3.10;1.50;;;;;;;28.14;24.02;100921.11;213090;1292;140360;-85
2023/05/31 15:26:26;;;;;;;4.90;1.80;;;;;;;27.95;23.81;100911.36;214067;1292;96646;-85
2023/05/31 15:31:27;;;;;;;3.30;1.40;;;;;;;27.89;23.08;100908.96;213524;1291;139726;-84
2023/05/31 15:36:27;;;;;;;7.10;1.90;;;;;;;27.76;23.97;100908.65;213709;1294;138446;-84
2023/05/31 15:41:30;;;;;;;4.20;1.70;;;;;;;27.61;23.44;100900.70;213298;1292;140055;-84
2023/05/31 15:46:30;;;;;;;6.80;1.70;;;;;;;27.28;25.02;100896.64;213610;1292;138008;-83
2023/05/31 15:51:31;;;;;;;5.50;1.60;;;;;;;27.04;24.80;100896.27;213112;1293;138673;-84
2023/05/31 15:56:32;;;;;;;8.20;2.30;;;;;;;26.82;25.63;100887.04;213214;1293;137919;-84
2023/05/31 16:01:32;;;;;;;5.90;1.70;;;;;;;26.49;25.10;100881.58;213173;1291;140940;-84
2023/05/31 16:06:33;;;;;;;4.30;1.80;;;;;;;26.26;26.28;100874.30;213549;1291;137790;-84
2023/05/31 16:11:34;;;;;;;5.70;1.60;;;;;;;26.10;27.23;100862.85;212837;1293;140387;-83
2023/05/31 16:16:36;;;;;;;7.00;1.80;;;;;;;25.82;26.12;100855.64;213602;1294;137894;-84
2023/05/31 16:21:37;;;;;;;5.90;1.80;;;;;;;25.59;27.05;100846.05;212789;1292;141353;-84
2023/05/31 16:26:37;;;;;;;4.90;1.70;;;;;;;25.36;26.88;100846.66;213622;1295;138421;-84
2023/05/31 16:31:38;;;;;;;4.70;1.80;;;;;;;25.07;28.36;100841.97;212949;1293;139625;-84
2023/05/31 16:36:38;;;;;;;5.80;2.60;;;;;;;24.88;28.56;100837.22;213319;1293;138117;-85
2023/05/31 16:41:39;;;;;;;5.70;1.90;;;;;;;24.68;28.64;100830.48;212721;1293;140658;-84
2023/05/31 16:46:39;;;;;;;6.60;1.50;;;;;;;24.48;28.86;100829.81;213745;1296;137747;-84
2023/05/31 16:51:40;;;;;;;4.40;1.80;;;;;;;24.29;30.04;100826.55;213287;1294;140312;-84
2023/05/31 16:56:40;;;;;;;4.30;1.80;;;;;;;24.07;30.27;100820.17;213735;1294;138195;-84
2023/05/31 17:01:41;;;;;;;7.10;1.80;;;;;;;23.86;30.25;100816.61;213168;1296;141026;-84
2023/05/31 17:06:42;;;;;;;6.60;2.50;;;;;;;23.72;31.44;100807.11;213272;1293;138865;-84
2023/05/31 17:11:42;;;;;;;7.30;2.10;;;;;;;23.58;32.68;100802.15;212856;1292;139940;-84
2023/05/31 17:16:43;;;;;;;6.00;2.20;;;;;;;23.42;33.16;100792.05;213453;1291;138000;-85
2023/05/31 17:21:43;;;;;;;8.70;1.90;;;;;;;23.30;33.14;100786.39;213011;1291;140461;-85
2023/05/31 17:26:47;;;;;;;11.40;2.30;;;;;;;23.16;33.77;100777.65;213375;1295;137958;-86
2023/05/31 17:31:47;;;;;;;5.50;2.20;;;;;;;23.04;34.64;100771.80;213847;1295;141027;-86
2023/05/31 17:36:48;;;;;;;6.40;1.80;;;;;;;22.92;35.05;100766.02;213391;1290;138013;-86
2023/05/31 17:41:48;;;;;;;5.40;1.90;;;;;;;22.79;35.49;100763.91;212661;1291;139153;-86
2023/05/31 17:46:49;;;;;;;10.00;2.50;;;;;;;22.66;35.84;100762.34;213317;1296;138352;-86
2023/05/31 17:51:50;;;;;;;6.20;2.20;;;;;;;22.54;36.17;100759.79;212981;1293;140584;-86
2023/05/31 17:56:53;;;;;;;5.90;1.70;;;;;;;22.41;36.31;100754.32;213700;1291;137723;-86
2023/05/31 18:01:53;;;;;;;7.10;2.10;;;;;;;22.29;36.55;100749.90;212758;1293;141638;-86
2023/05/31 18:06:53;;;;;;;5.50;1.80;;;;;;;22.15;36.48;100749.05;213389;1291;138044;-85
2023/05/31 18:11:54;;;;;;;4.50;1.90;;;;;;;22.02;36.34;100747.05;212782;1291;140067;-86
2023/05/31 18:16:55;;;;;;;6.00;2.00;;;;;;;21.90;36.72;100749.66;213272;1295;138137;-87
2023/05/31 18:21:56;;;;;;;6.60;2.00;;;;;;;21.75;36.96;100750.27;212785;1291;140056;-85
2023/05/31 18:27:23;;;;;;;6.00;1.90;;;;;;;21.59;36.60;100744.00;213418;1295;138269;-85
2023/05/31 18:32:23;;;;;;;7.30;1.90;;;;;;;21.37;37.24;100735.50;213038;1295;139491;-85
2023/05/31 18:37:26;;;;;;;4.40;1.70;;;;;;;21.19;37.41;100733.99;213436;1295;137561;-85
2023/05/31 18:42:27;;;;;;;4.80;1.70;;;;;;;20.98;37.95;100732.89;212941;1294;138925;-85
2023/05/31 18:47:28;;;;;;;3.80;1.70;;;;;;;20.79;38.45;100726.58;213459;1294;138454;-85
2023/05/31 18:52:28;;;;;;;6.20;1.80;;;;;;;20.61;39.26;100726.55;212769;1295;139129;-85
2023/05/31 18:57:29;;;;;;;4.20;1.70;;;;;;;20.39;40.17;100725.83;213450;1291;137991;-84
2023/05/31 19:02:30;;;;;;;5.40;1.90;;;;;;;20.14;40.14;100727.87;212849;1295;139374;-85
2023/05/31 19:07:31;;;;;;;6.30;2.30;;;;;;;19.86;40.78;100730.23;213590;1291;96620;-85
2023/05/31 19:12:31;;;;;;;6.10;2.40;;;;;;;19.61;41.54;100732.29;212838;1291;140824;-85
2023/05/31 19:17:32;;;;;;;8.40;2.30;;;;;;;19.38;42.61;100732.12;213542;1296;137855;-86
2023/05/31 19:22:47;;;;;;;9.40;2.30;;;;;;;19.19;43.36;100738.62;213273;1294;140370;-85
2023/05/31 19:27:47;;;;;;;8.10;2.60;;;;;;;18.95;44.16;100739.38;213719;1291;138026;-85
2023/05/31 19:32:48;;;;;;;12.40;2.70;;;;;;;18.72;44.51;100734.20;213431;1292;142425;-85
2023/05/31 19:37:48;;;;;;;20.20;2.90;;;;;;;18.51;44.79;100737.90;213659;1291;97955;-85
2023/05/31 19:42:49;;;;;;;10.80;2.80;;;;;;;18.25;45.15;100737.65;212812;1295;140425;-84
2023/05/31 19:47:50;;;;;;;11.20;2.90;;;;;;;18.02;45.40;100735.92;213472;1292;137847;-85
2023/05/31 19:52:50;;;;;;;14.70;3.10;;;;;;;17.82;45.97;100739.79;213072;1291;140456;-84
2023/05/31 19:57:51;;;;;;;8.20;2.90;;;;;;;17.64;46.77;100740.34;213503;1291;138222;-85
2023/05/31 20:02:51;;;;;;;13.50;3.30;;;;;;;17.46;47.58;100738.41;212990;1292;140312;-85
2023/05/31 20:07:51;;;;;;;10.00;4.40;;;;;;;17.26;48.20;100742.19;213510;1296;96810;-85
2023/05/31 20:12:52;;;;;;;11.50;3.90;;;;;;;17.07;48.81;100735.31;212914;1296;139977;-85
2023/05/31 20:17:52;;;;;;;14.70;4.50;;;;;;;16.90;49.59;100742.96;213614;1291;142183;-84
2023/05/31 20:22:53;;;;;;;10.90;4.00;;;;;;;16.74;50.37;100743.83;212973;1295;142601;-83
2023/05/31 20:27:53;;;;;;;9.50;4.30;;;;;;;16.55;50.65;100748.83;213753;1295;138104;-83
2023/05/31 20:32:54;;;;;;;11.20;4.70;;;;;;;16.39;51.41;100749.42;213047;1296;140009;-83
2023/05/31 20:37:54;;;;;;;7.90;4.20;;;;;;;16.23;52.37;100745.07;213786;1292;97932;-83
2023/05/31 20:42:55;;;;;;;10.90;3.70;;;;;;;16.07;52.76;100735.19;213116;1295;140824;-82
2023/05/31 20:47:55;;;;;;;13.70;5.00;;;;;;;15.93;52.94;100735.36;213807;1295;138697;-83
2023/05/31 20:52:56;;;;;;;9.90;4.50;;;;;;;15.79;53.50;100727.20;213382;1295;139867;-83
2023/05/31 20:57:56;;;;;;;11.30;4.40;;;;;;;15.63;54.07;100724.96;213649;1295;137978;-82
2023/05/31 21:02:57;;;;;;;9.00;4.10;;;;;;;15.49;54.60;100726.13;212800;1292;140235;-82
2023/05/31 21:07:57;;;;;;;10.60;4.30;;;;;;;15.35;55.47;100730.85;213638;1292;97137;-82
2023/05/31 21:12:58;;;;;;;9.60;3.70;;;;;;;15.20;56.03;100723.59;213229;1295;141300;-81
2023/05/31 21:17:58;;;;;;;11.70;3.60;;;;;;;15.06;56.61;100723.41;213835;1295;138891;-83
2023/05/31 21:23:00;;;;;;;8.50;3.80;;;;;;;14.94;56.86;100723.27;213189;1291;140126;-82
2023/05/31 21:28:00;;;;;;;7.90;3.40;;;;;;;14.79;57.30;100719.95;213803;1295;138246;-81
2023/05/31 21:33:01;;;;;;;7.80;3.50;;;;;;;14.66;57.33;100715.55;212978;1296;140190;-82
2023/05/31 21:38:01;;;;;;;9.00;3.40;;;;;;;14.56;57.69;100712.63;213744;1296;96619;-82
2023/05/31 21:43:02;;;;;;;9.30;3.70;;;;;;;14.45;57.76;100702.18;212875;1292;139922;-83
2023/05/31 21:48:02;;;;;;;7.90;3.10;;;;;;;14.35;58.25;100699.34;213735;1294;138062;-83
2023/05/31 21:53:03;;;;;;;12.60;3.60;;;;;;;14.20;59.01;100696.95;213636;1293;140991;-82
2023/05/31 21:58:03;;;;;;;7.70;3.20;;;;;;;14.08;59.10;100694.63;213789;1295;138197;-82
2023/05/31 22:03:04;;;;;;;9.40;3.90;;;;;;;13.96;59.97;100689.48;213276;1296;139961;-83
2023/05/31 22:08:04;;;;;;;9.90;3.30;;;;;;;13.81;60.15;100690.86;213863;1294;96631;-83
2023/05/31 22:13:05;;;;;;;8.80;3.00;;;;;;;13.71;60.52;100688.15;213257;1293;139055;-83
2023/05/31 22:18:05;;;;;;;9.40;3.10;;;;;;;13.62;60.62;100689.31;214243;1292;137655;-82
2023/05/31 22:23:05;;;;;;;9.30;3.50;;;;;;;13.51;61.18;100694.27;213812;1295;140869;-83
2023/05/31 22:28:06;;;;;;;6.90;2.90;;;;;;;13.40;62.12;100690.27;214009;1294;137897;-82
2023/05/31 22:33:07;;;;;;;8.70;3.30;;;;;;;13.29;62.86;100690.69;213271;1290;142952;-82
2023/05/31 22:38:08;;;;;;;7.30;2.80;;;;;;;13.15;63.24;100688.83;213700;1295;96626;-82
2023/05/31 22:43:08;;;;;;;6.50;2.60;;;;;;;13.05;63.67;100687.81;212917;1297;320099;-82
2023/05/31 22:48:09;;;;;;;9.50;2.90;;;;;;;12.94;63.95;100688.13;213558;1295;137737;-82
2023/05/31 22:53:09;;;;;;;7.40;3.20;;;;;;;12.84;64.34;100687.52;213178;1296;139369;-82